Maynard, OH

12:15 PM EDT on August 30, 2014 (GMT -0400)
Pittsburgh International | Change Station
CLOSE
Current Station
Airport
Location: Pittsburgh,
Elevation: 1201 ft
Nearby Weather Stations

Elev 1201 ft 40.48 °N, 80.21 °W | Updated 24 minutes ago

Mostly Cloudy
Mostly Cloudy
78 °F
Feels Like 78 °F
N
10
Wind Variable Wind from South

Today
High -- | Low -- °F
--% Chance of Precip.
Yesterday
High -- | Low -- °F
Precip. -- in
6:49 AM 7:58 PM
Waxing Crescent, 23% visible
Pressure 30.12 in
Visibility 10.0 miles
Clouds Mostly Cloudy 10000 ft
Mostly Cloudy 25000 ft
Dew Point 67 °F
Humidity 68%
Rainfall 0.00 in
Snow Depth Not available.
UV 4 out of 12
Pollen 10.20 out of 12
Air Quality Not available.
Flu Activity Not available.
METAR KPIT 301551Z 19009KT 10SM BKN100 BKN250 26/19 A3012 RMK AO2 SLP200 T02560194

More Conditions Fewer Conditions

Pressure 30.12 in
Visibility 10.0 miles
Clouds Mostly Cloudy 10000 ft
Mostly Cloudy 25000 ft
Dew Point 67 °F
Humidity 68%
Rainfall 0.00 in
Snow Depth Not available.
UV 4 out of 12
Pollen 10.20 out of 12
Air Quality Not available.
Flu Activity Not available.
METAR KPIT 301551Z 19009KT 10SM BKN100 BKN250 26/19 A3012 RMK AO2 SLP200 T02560194

More Conditions Fewer Conditions

10-Day Weather Forecast

Almanac

Astronomy

Aug. 30, 2014 Rise Set
Actual Time 6:49 AM EDT 7:58 PM EDT
Civil Twilight 6:21 AM EDT 8:26 PM EDT
Nautical Twilight 5:47 AM EDT 8:59 PM EDT
Astronomical Twilight 5:12 AM EDT 9:34 PM EDT
Moon 11:35 AM EDT 10:31 PM EDT
Length of Visible Light 14h 04m
Length of Day
13h 09m
Tomorrow will be 2m 31s shorter.
Waxing Crescent, 23% of the Moon is Illuminated
Today
Waxing Crescent
Sep 2
First Quarter
Sep 8
Full
Sep 15
Last Quarter
Sep 24
New

Today's Extremes

State Highs State Lows

Community

WunderPhotos

Upload Photos

1,748,556 photos uploaded!

WunderBlogs® & News

Nearby

Snow Depth

Station Depth Elevation
No new snow has been reported.

Earthquake Activity

City Distance Mag. Time & Date
No recent earthquake activity has been reported nearby.
Minimum magnitude displayed is 2.5.

Coastal Water Temperatures

Place Temperature
No Stations Reporting

Nearby Weather Stations